Eudora, Missouri
Current Conditions -  °F | °C
As of 9:52 PM on Friday 28 Nov 2014 (Local Time) from KSGF Reporting Station
Clear Clear  
Wind Chill: 42°   Ceiling: Unl
Heat Index: 48°   Visibility: 10mi
Dew Point: 35°   Wind: 14mph
Humidity: 61%   Direction: 160°SSE
Pressure: 29.88"   Gusts: NA
Location:  37.48°N, 93.54°W
Report Text: KSGF 290352Z 16012KT 10SM CLR 09/02 A2988 RMK AO2 SLP121 T00890017
Loading
Personal Weather Stations






























Interactive Weather Map New forecast layout! Learn more

10-Day Weather Forecast

Advertisements
Track Severe Weather on mobile